createdAt,value
2019-04-28T00:00:41.430Z,6.30
2019-04-28T00:06:46.017Z,14.40
2019-04-28T00:12:51.111Z,8.57
2019-04-28T00:18:55.678Z,9.87
2019-04-28T00:25:04.655Z,8.07
2019-04-28T00:31:11.158Z,12.60
2019-04-28T00:37:17.574Z,10.87
2019-04-28T00:43:22.381Z,9.00
2019-04-28T00:49:44.737Z,10.47
2019-04-28T00:55:49.322Z,9.50
2019-04-28T01:01:55.514Z,9.10
2019-04-28T01:08:01.116Z,10.27
2019-04-28T01:14:06.256Z,9.67
2019-04-28T01:20:15.351Z,14.30
2019-04-28T01:26:20.109Z,11.97
2019-04-28T01:32:26.491Z,15.20
2019-04-28T01:38:31.103Z,16.80
2019-04-28T01:44:35.642Z,14.70
2019-04-28T01:50:40.188Z,17.80
2019-04-28T01:56:44.723Z,15.77
2019-04-28T02:02:50.521Z,13.43
2019-04-28T02:08:55.296Z,16.33
2019-04-28T02:15:01.016Z,15.77
2019-04-28T02:21:07.569Z,11.60
2019-04-28T02:27:13.873Z,15.80
2019-04-28T02:33:20.978Z,18.60
2019-04-28T02:39:24.874Z,15.17
2019-04-28T02:45:31.623Z,14.33
2019-04-28T02:51:40.750Z,14.67
2019-04-28T02:57:44.806Z,18.37
2019-04-28T03:03:50.768Z,21.93
2019-04-28T03:09:55.626Z,20.20
2019-04-28T03:16:01.536Z,27.03
2019-04-28T03:22:06.576Z,18.03
2019-04-28T03:28:25.108Z,19.13
2019-04-28T03:34:44.180Z,16.33
2019-04-28T03:40:51.295Z,18.23
2019-04-28T03:46:56.584Z,16.10
2019-04-28T03:53:01.248Z,17.80
2019-04-28T03:59:05.943Z,15.23
2019-04-28T04:05:11.204Z,17.40
2019-04-28T04:11:26.257Z,23.30
2019-04-28T04:17:41.513Z,22.57
2019-04-28T04:23:46.175Z,20.40
2019-04-28T04:29:51.024Z,16.07
2019-04-28T04:35:55.779Z,13.27
2019-04-28T04:42:00.714Z,14.20
2019-04-28T04:48:05.684Z,21.17
2019-04-28T04:54:10.859Z,14.67
2019-04-28T05:00:26.293Z,12.93
2019-04-28T05:06:41.497Z,15.10
2019-04-28T05:12:46.388Z,15.70
2019-04-28T05:18:50.935Z,18.10
2019-04-28T05:25:00.110Z,11.70
2019-04-28T05:31:04.769Z,15.67
2019-04-28T05:37:10.792Z,17.37
2019-04-28T05:43:15.580Z,24.03
2019-04-28T05:49:23.357Z,13.53
2019-04-28T05:55:30.547Z,21.93
2019-04-28T06:01:36.850Z,16.97
2019-04-28T06:07:51.609Z,17.53
2019-04-28T06:13:56.150Z,12.30
2019-04-28T06:20:00.731Z,18.57
2019-04-28T06:26:05.302Z,25.30
2019-04-28T06:32:09.944Z,19.43
2019-04-28T06:38:14.484Z,16.33
2019-04-28T06:44:19.103Z,19.47
2019-04-28T06:50:23.643Z,18.30
2019-04-28T06:56:28.241Z,13.07
2019-04-28T07:02:32.849Z,12.53
2019-04-28T07:08:37.417Z,17.60
2019-04-28T07:14:41.994Z,21.13
2019-04-28T07:20:48.200Z,15.07
2019-04-28T07:26:52.765Z,17.53
2019-04-28T07:32:57.370Z,18.50
2019-04-28T07:39:02.020Z,17.17
2019-04-28T07:45:07.982Z,14.23
2019-04-28T07:51:12.561Z,17.23
2019-04-28T07:57:17.197Z,20.67
2019-04-28T08:03:21.832Z,26.20
2019-04-28T08:09:26.453Z,17.20
2019-04-28T08:15:31.012Z,18.23
2019-04-28T08:21:35.561Z,22.27
2019-04-28T08:27:40.703Z,24.97
2019-04-28T08:33:46.898Z,24.70
2019-04-28T08:40:03.249Z,25.90
2019-04-28T08:46:07.869Z,23.00
2019-04-28T08:52:12.495Z,21.67
2019-04-28T08:58:17.053Z,24.03
2019-04-28T09:04:21.606Z,16.20
2019-04-28T09:10:26.324Z,19.97
2019-04-28T09:16:30.955Z,29.13
2019-04-28T09:22:35.578Z,15.73
2019-04-28T09:28:40.200Z,17.30
2019-04-28T09:34:44.748Z,21.13
2019-04-28T09:40:49.393Z,18.80
2019-04-28T09:46:54.022Z,18.00
2019-04-28T09:52:58.610Z,18.70
2019-04-28T09:59:03.240Z,17.83
2019-04-28T10:05:09.740Z,12.07
2019-04-28T10:11:14.513Z,25.40
2019-04-28T10:17:19.037Z,21.80
2019-04-28T10:23:23.658Z,18.33
2019-04-28T10:29:28.332Z,22.37
2019-04-28T10:35:32.973Z,10.50
2019-04-28T10:41:39.182Z,3.63
2019-04-28T10:47:43.791Z,4.93
2019-04-28T10:53:48.362Z,5.00
2019-04-28T10:59:52.916Z,8.70
2019-04-28T11:05:57.629Z,7.27
2019-04-28T11:12:02.545Z,3.60
2019-04-28T11:18:09.068Z,4.30
2019-04-28T11:24:13.620Z,9.80
2019-04-28T11:30:19.601Z,6.93
2019-04-28T11:36:24.520Z,11.80
2019-04-28T11:42:29.085Z,12.47
2019-04-28T11:48:33.710Z,10.33
2019-04-28T11:54:38.272Z,15.50
2019-04-28T12:00:42.998Z,10.60
2019-04-28T12:06:47.822Z,8.57
2019-04-28T12:12:54.843Z,9.00
2019-04-28T12:19:09.871Z,14.30
2019-04-28T12:25:14.631Z,11.90
2019-04-28T12:31:19.287Z,13.07
2019-04-28T12:37:23.858Z,13.27
2019-04-28T12:43:28.397Z,14.37
2019-04-28T12:49:34.623Z,8.77
2019-04-28T12:55:39.166Z,7.20
2019-04-28T13:01:57.339Z,5.13
2019-04-28T13:08:01.960Z,5.20
2019-04-28T13:14:06.581Z,8.57
2019-04-28T13:20:11.282Z,3.80
2019-04-28T13:26:15.841Z,3.77
2019-04-28T13:32:20.437Z,4.43
2019-04-28T13:38:25.055Z,4.67
2019-04-28T13:44:49.517Z,12.23
2019-04-28T13:50:54.063Z,9.23
2019-04-28T13:56:58.625Z,7.33
2019-04-28T14:03:08.685Z,7.07
2019-04-28T14:09:14.937Z,8.20
2019-04-28T14:15:19.504Z,7.83
2019-04-28T14:21:24.094Z,8.13
2019-04-28T14:27:28.709Z,7.67
2019-04-28T14:33:33.337Z,10.80
2019-04-28T14:39:37.880Z,8.87
2019-04-28T14:45:42.431Z,9.57
2019-04-28T14:51:47.122Z,8.87
2019-04-28T14:57:51.650Z,9.10
2019-04-28T15:03:57.866Z,12.20
2019-04-28T15:10:04.093Z,9.17
2019-04-28T15:16:08.827Z,6.67
2019-04-28T15:22:13.384Z,4.70
2019-04-28T15:28:18.011Z,7.03
2019-04-28T15:34:22.592Z,5.97
2019-04-28T15:40:27.218Z,8.03
2019-04-28T15:46:31.765Z,7.70
2019-04-28T15:52:36.322Z,6.73
2019-04-28T15:58:40.943Z,4.63
2019-04-28T16:04:45.485Z,6.13
2019-04-28T16:10:50.033Z,5.63
2019-04-28T16:16:54.589Z,6.40
2019-04-28T16:22:59.204Z,5.60
2019-04-28T16:29:04.023Z,11.83
2019-04-28T16:35:08.825Z,7.13
2019-04-28T16:41:26.604Z,6.03
2019-04-28T16:47:31.176Z,10.53
2019-04-28T16:53:37.278Z,6.10
2019-04-28T16:59:51.982Z,3.83
2019-04-28T17:05:56.772Z,5.87
2019-04-28T17:12:01.333Z,4.20
2019-04-28T17:18:06.138Z,4.97
2019-04-28T17:24:10.717Z,4.90
2019-04-28T17:30:15.487Z,7.03
2019-04-28T17:36:20.176Z,5.03
2019-04-28T17:42:24.744Z,2.60
2019-04-28T17:48:37.067Z,9.67
2019-04-28T17:54:41.631Z,6.03
2019-04-28T18:00:55.173Z,6.63
2019-04-28T18:07:06.847Z,7.17
2019-04-28T18:13:11.577Z,9.53
2019-04-28T18:19:17.764Z,8.33
2019-04-28T18:25:22.449Z,5.67
2019-04-28T18:31:26.770Z,5.53
2019-04-28T18:37:49.228Z,7.80
2019-04-28T18:44:04.426Z,7.83
2019-04-28T18:50:09.220Z,21.07
2019-04-28T18:56:13.850Z,7.20
2019-04-28T19:02:28.931Z,6.47
2019-04-28T19:08:48.498Z,8.23
2019-04-28T19:14:45.891Z,6.33
2019-04-28T19:20:50.567Z,4.63
2019-04-28T19:26:55.523Z,6.13
2019-04-28T19:33:00.128Z,11.10
2019-04-28T19:39:06.243Z,12.83
2019-04-28T19:45:12.679Z,6.40
2019-04-28T19:51:31.070Z,8.60
2019-04-28T19:57:26.820Z,7.80
2019-04-28T20:03:31.362Z,8.00
2019-04-28T20:09:35.966Z,11.40
2019-04-28T20:15:40.583Z,10.33
2019-04-28T20:21:45.162Z,9.73
2019-04-28T20:27:49.706Z,14.47
2019-04-28T20:33:54.267Z,6.10
2019-04-28T20:40:02.893Z,6.40
2019-04-28T20:46:07.796Z,8.13
2019-04-28T20:52:12.417Z,5.73
2019-04-28T20:58:16.969Z,7.67
2019-04-28T21:04:21.507Z,7.77
2019-04-28T21:10:37.265Z,10.73
2019-04-28T21:16:32.405Z,8.20
2019-04-28T21:22:37.065Z,12.00
2019-04-28T21:28:41.602Z,11.50
2019-04-28T21:34:46.147Z,13.23
2019-04-28T21:40:50.728Z,7.30
2019-04-28T21:46:56.889Z,9.50
2019-04-28T21:53:01.433Z,8.60
2019-04-28T21:59:06.042Z,8.73
2019-04-28T22:05:10.832Z,8.63
2019-04-28T22:11:15.537Z,12.17
2019-04-28T22:17:20.157Z,7.87
2019-04-28T22:23:26.418Z,11.90
2019-04-28T22:29:31.045Z,8.43
2019-04-28T22:35:35.564Z,6.93
2019-04-28T22:41:40.282Z,7.80
2019-04-28T22:47:44.894Z,7.77
2019-04-28T22:53:49.693Z,5.83
2019-04-28T22:59:55.894Z,9.20
2019-04-28T23:06:00.619Z,10.20
2019-04-28T23:12:05.345Z,9.77
2019-04-28T23:18:09.952Z,6.33
2019-04-28T23:24:14.526Z,11.57
2019-04-28T23:30:44.086Z,9.17
2019-04-28T23:36:48.695Z,8.27
2019-04-28T23:42:54.873Z,6.53
2019-04-28T23:48:59.416Z,13.07
2019-04-28T23:55:09.222Z,11.53
